createdAt,value
2018-01-07T00:00:37.808Z,-9.24
2018-01-07T00:01:47.879Z,-9.24
2018-01-07T00:02:57.849Z,-9.33
2018-01-07T00:04:07.823Z,-9.31
2018-01-07T00:05:17.793Z,-9.34
2018-01-07T00:06:27.764Z,-9.41
2018-01-07T00:07:36.940Z,-9.45
2018-01-07T00:08:46.915Z,-9.37
2018-01-07T00:09:56.633Z,-9.41
2018-01-07T00:11:06.349Z,-9.37
2018-01-07T00:12:16.326Z,-9.39
2018-01-07T00:13:26.029Z,-9.41
2018-01-07T00:14:36.005Z,-9.41
2018-01-07T00:15:45.984Z,-9.45
2018-01-07T00:16:55.953Z,-9.34
2018-01-07T00:18:05.926Z,-9.28
2018-01-07T00:19:15.632Z,-9.35
2018-01-07T00:20:25.658Z,-9.35
2018-01-07T00:21:35.627Z,-9.37
2018-01-07T00:22:45.380Z,-9.28
2018-01-07T00:23:55.089Z,-9.27
2018-01-07T00:25:05.060Z,-9.31
2018-01-07T00:26:15.084Z,-9.31
2018-01-07T00:27:25.048Z,-9.27
2018-01-07T00:28:35.019Z,-9.25
2018-01-07T00:29:44.988Z,-9.31
2018-01-07T00:30:54.960Z,-9.3
2018-01-07T00:32:04.930Z,-9.24
2018-01-07T00:33:14.643Z,-9.28
2018-01-07T00:34:24.609Z,-9.25
2018-01-07T00:35:34.313Z,-9.23
2018-01-07T00:36:44.171Z,-9.3
2018-01-07T00:37:54.154Z,-9.3
2018-01-07T00:39:04.125Z,-9.3
2018-01-07T00:40:13.827Z,-9.3
2018-01-07T00:41:23.796Z,-9.27
2018-01-07T00:42:33.504Z,-9.28
2018-01-07T00:43:43.480Z,-9.2
2018-01-07T00:44:53.187Z,-9.17
2018-01-07T00:46:03.160Z,-9.17
2018-01-07T00:47:13.138Z,-9.06
2018-01-07T00:48:23.118Z,-9.1
2018-01-07T00:49:33.093Z,-8.95
2018-01-07T00:50:43.070Z,-8.96
2018-01-07T00:51:52.523Z,-8.88
2018-01-07T00:53:02.502Z,-8.84
2018-01-07T00:54:12.496Z,-8.86
2018-01-07T00:55:22.204Z,-8.74
2018-01-07T00:56:32.205Z,-8.8
2018-01-07T00:57:42.188Z,-8.73
2018-01-07T00:58:52.162Z,-8.75
2018-01-07T01:00:02.137Z,-8.74
2018-01-07T01:01:12.116Z,-8.71
2018-01-07T01:02:22.089Z,-8.71
2018-01-07T01:03:31.799Z,-8.6
2018-01-07T01:04:41.773Z,-8.65
2018-01-07T01:05:51.749Z,-8.7
2018-01-07T01:07:01.463Z,-8.71
2018-01-07T01:08:11.436Z,-8.7
2018-01-07T01:09:21.413Z,-8.85
2018-01-07T01:10:31.392Z,-8.8
2018-01-07T01:11:41.414Z,-8.85
2018-01-07T01:12:51.387Z,-8.98
2018-01-07T01:14:01.100Z,-8.89
2018-01-07T01:15:10.810Z,-9.02
2018-01-07T01:16:20.785Z,-8.94
2018-01-07T01:17:30.760Z,-9.02
2018-01-07T01:18:40.735Z,-8.99
2018-01-07T01:19:50.707Z,-8.99
2018-01-07T01:21:00.677Z,-9.06
2018-01-07T01:22:10.658Z,-9.1
2018-01-07T01:23:20.682Z,-9.1
2018-01-07T01:24:30.391Z,-9.12
2018-01-07T01:25:40.373Z,-9.1
2018-01-07T01:26:50.346Z,-9.1
2018-01-07T01:28:00.317Z,-9.13
2018-01-07T01:29:10.295Z,-9.12
2018-01-07T01:30:20.003Z,-9.09
2018-01-07T01:31:30.028Z,-9.06
2018-01-07T01:32:39.752Z,-9.03
2018-01-07T01:33:49.722Z,-9.1
2018-01-07T01:34:59.437Z,-9.04
2018-01-07T01:36:09.419Z,-9.06
2018-01-07T01:37:19.128Z,-9.09
2018-01-07T01:38:29.102Z,-9.09
2018-01-07T01:39:39.075Z,-9.04
2018-01-07T01:40:49.091Z,-8.98
2018-01-07T01:41:59.076Z,-9.07
2018-01-07T01:43:09.053Z,-8.99
2018-01-07T01:44:19.032Z,-9.06
2018-01-07T01:45:29.010Z,-9.06
2018-01-07T01:46:38.772Z,-9.12
2018-01-07T01:47:48.483Z,-9.07
2018-01-07T01:48:58.463Z,-9.09
2018-01-07T01:50:08.441Z,-9.06
2018-01-07T01:51:18.145Z,-9.09
2018-01-07T01:52:28.114Z,-9.09
2018-01-07T01:53:38.085Z,-9.03
2018-01-07T01:54:48.056Z,-9.03
2018-01-07T01:55:58.032Z,-9.04
2018-01-07T01:57:08.007Z,-8.96
2018-01-07T01:58:17.990Z,-8.99
2018-01-07T01:59:27.433Z,-8.92
2018-01-07T02:00:37.403Z,-8.86
2018-01-07T02:01:47.375Z,-8.85
2018-01-07T02:02:57.352Z,-8.68
2018-01-07T02:04:07.331Z,-8.67
2018-01-07T02:05:17.305Z,-8.52
2018-01-07T02:06:27.278Z,-8.42
2018-01-07T02:07:36.721Z,-8.41
2018-01-07T02:08:46.700Z,-8.38
2018-01-07T02:09:56.671Z,-8.39
2018-01-07T02:11:06.382Z,-8.38
2018-01-07T02:12:16.097Z,-8.36
2018-01-07T02:13:26.068Z,-8.36
2018-01-07T02:14:36.044Z,-8.21
2018-01-07T02:15:46.019Z,-8.24
2018-01-07T02:16:55.991Z,-8.18
2018-01-07T02:18:05.705Z,-8.18
2018-01-07T02:19:15.685Z,-8.21
2018-01-07T02:20:25.665Z,-8.11
2018-01-07T02:21:35.373Z,-8.17
2018-01-07T02:22:45.347Z,-8.05
2018-01-07T02:23:54.788Z,-8.03
2018-01-07T02:25:04.765Z,-7.98
2018-01-07T02:26:14.738Z,-7.94
2018-01-07T02:27:24.711Z,-7.83
2018-01-07T02:28:34.690Z,-7.7
2018-01-07T02:29:44.696Z,-7.64
2018-01-07T02:30:54.669Z,-7.59
2018-01-07T02:32:04.381Z,-7.56
2018-01-07T02:33:14.409Z,-7.56
2018-01-07T02:34:24.134Z,-7.56
2018-01-07T02:35:33.854Z,-7.52
2018-01-07T02:36:43.845Z,-7.56
2018-01-07T02:37:53.816Z,-7.56
2018-01-07T02:39:03.527Z,-7.5
2018-01-07T02:40:13.245Z,-7.63
2018-01-07T02:41:23.224Z,-7.77
2018-01-07T02:42:32.936Z,-7.88
2018-01-07T02:43:42.911Z,-7.8
2018-01-07T02:44:52.892Z,-7.77
2018-01-07T02:46:02.916Z,-7.95
2018-01-07T02:47:12.366Z,-7.92
2018-01-07T02:48:22.341Z,-7.95
2018-01-07T02:49:32.325Z,-7.96
2018-01-07T02:50:41.771Z,-8.08
2018-01-07T02:51:51.743Z,-8.23
2018-01-07T02:53:01.745Z,-8.29
2018-01-07T02:54:11.730Z,-8.29
2018-01-07T02:55:21.708Z,-8.36
2018-01-07T02:56:31.682Z,-8.41
2018-01-07T02:57:41.411Z,-8.41
2018-01-07T02:58:51.134Z,-8.5
2018-01-07T03:00:01.114Z,-8.47
2018-01-07T03:01:10.838Z,-8.59
2018-01-07T03:02:20.813Z,-8.59
2018-01-07T03:03:30.793Z,-8.68
2018-01-07T03:04:39.972Z,-8.64
2018-01-07T03:05:49.946Z,-8.68
2018-01-07T03:06:59.917Z,-8.65
2018-01-07T03:08:09.944Z,-8.74
2018-01-07T03:09:19.954Z,-8.68
2018-01-07T03:10:29.662Z,-8.65
2018-01-07T03:11:39.632Z,-8.7
2018-01-07T03:12:49.607Z,-8.67
2018-01-07T03:13:59.684Z,-8.7
2018-01-07T03:15:09.655Z,-8.68
2018-01-07T03:16:19.623Z,-8.65
2018-01-07T03:17:29.603Z,-8.7
2018-01-07T03:18:39.313Z,-8.7
2018-01-07T03:19:49.070Z,-8.65
2018-01-07T03:20:59.048Z,-8.56
2018-01-07T03:22:09.020Z,-8.6
2018-01-07T03:23:19.001Z,-8.57
2018-01-07T03:24:28.981Z,-8.54
2018-01-07T03:25:38.742Z,-8.53
2018-01-07T03:26:48.451Z,-8.5
2018-01-07T03:27:58.424Z,-8.44
2018-01-07T03:29:08.133Z,-8.44
2018-01-07T03:30:18.122Z,-8.5
2018-01-07T03:31:28.213Z,-8.47
2018-01-07T03:32:38.197Z,-8.53
2018-01-07T03:33:48.170Z,-8.49
2018-01-07T03:34:58.149Z,-8.39
2018-01-07T03:36:07.331Z,-8.05
2018-01-07T03:37:17.308Z,-8.02
2018-01-07T03:38:27.287Z,-7.89
2018-01-07T03:39:37.000Z,-7.74
2018-01-07T03:40:46.970Z,-7.74
2018-01-07T03:41:56.943Z,-7.56
2018-01-07T03:43:06.652Z,-7.48
2018-01-07T03:44:16.628Z,-7.55
2018-01-07T03:45:26.602Z,-7.56
2018-01-07T03:46:36.571Z,-7.63
2018-01-07T03:47:46.541Z,-7.67
2018-01-07T03:48:56.527Z,-7.7
2018-01-07T03:50:06.508Z,-7.57
2018-01-07T03:51:16.480Z,-7.53
2018-01-07T03:52:26.455Z,-7.53
2018-01-07T03:53:36.435Z,-7.57
2018-01-07T03:54:46.412Z,-7.6
2018-01-07T03:55:56.392Z,-7.53
2018-01-07T03:57:06.366Z,-7.44
2018-01-07T03:58:16.332Z,-7.52
2018-01-07T03:59:26.311Z,-7.46
2018-01-07T04:03:28.608Z,-7.5
2018-01-07T04:04:38.582Z,-7.59
2018-01-07T04:05:48.558Z,-7.52
2018-01-07T04:06:58.527Z,-7.48
2018-01-07T04:08:08.501Z,-7.56
2018-01-07T04:09:18.471Z,-7.6
2018-01-07T04:10:28.444Z,-7.66
2018-01-07T04:11:38.155Z,-7.64
2018-01-07T04:12:48.127Z,-7.7
2018-01-07T04:13:58.099Z,-7.71
2018-01-07T04:15:07.857Z,-7.66
2018-01-07T04:16:17.579Z,-7.63
2018-01-07T04:17:27.565Z,-7.5
2018-01-07T04:18:37.532Z,-7.64
2018-01-07T04:19:47.505Z,-7.55
2018-01-07T04:20:57.480Z,-7.52
2018-01-07T04:22:07.187Z,-7.5
2018-01-07T04:23:17.165Z,-7.46
2018-01-07T04:24:27.137Z,-7.41
2018-01-07T04:25:37.120Z,-7.36
2018-01-07T04:26:47.092Z,-7.39
2018-01-07T04:27:56.807Z,-7.36
2018-01-07T04:29:06.515Z,-7.35
2018-01-07T04:30:16.266Z,-7.5
2018-01-07T04:31:25.984Z,-7.6
2018-01-07T04:32:35.435Z,-7.57
2018-01-07T04:33:45.413Z,-7.66
2018-01-07T04:34:55.383Z,-7.55
2018-01-07T04:36:05.090Z,-7.59
2018-01-07T04:37:14.806Z,-7.64
2018-01-07T04:38:24.248Z,-7.74
2018-01-07T04:39:33.689Z,-7.67
2018-01-07T04:40:43.661Z,-7.7
2018-01-07T04:41:53.636Z,-7.73
2018-01-07T04:43:03.618Z,-7.84
2018-01-07T04:44:13.382Z,-7.81
2018-01-07T04:45:23.368Z,-7.92
2018-01-07T04:46:33.344Z,-7.95
2018-01-07T04:47:43.320Z,-7.96
2018-01-07T04:48:53.301Z,-7.94
2018-01-07T04:50:03.277Z,-7.96
2018-01-07T04:51:13.257Z,-8.05
2018-01-07T04:52:23.233Z,-8.08
2018-01-07T04:53:33.210Z,-8.05
2018-01-07T04:54:43.182Z,-7.98
2018-01-07T04:55:52.895Z,-7.99
2018-01-07T04:57:02.881Z,-7.99
2018-01-07T04:58:12.894Z,-8.05
2018-01-07T04:59:22.864Z,-7.99
2018-01-07T05:00:32.838Z,-8.13
2018-01-07T05:01:42.811Z,-8.15
2018-01-07T05:02:52.790Z,-8.08
2018-01-07T05:04:02.501Z,-8.2
2018-01-07T05:05:12.473Z,-8.07
2018-01-07T05:06:22.447Z,-8.21
2018-01-07T05:07:32.427Z,-8.17
2018-01-07T05:08:42.135Z,-8.17
2018-01-07T05:09:52.106Z,-8.32
2018-01-07T05:11:02.084Z,-8.21
2018-01-07T05:12:12.058Z,-8.26
2018-01-07T05:13:22.029Z,-8.21
2018-01-07T05:14:31.764Z,-8.26
2018-01-07T05:15:41.737Z,-8.42
2018-01-07T05:16:51.709Z,-8.35
2018-01-07T05:18:01.418Z,-8.36
2018-01-07T05:19:11.438Z,-8.36
2018-01-07T05:20:21.414Z,-8.44
2018-01-07T05:21:31.392Z,-8.52
2018-01-07T05:22:41.368Z,-8.44
2018-01-07T05:23:51.340Z,-8.5
2018-01-07T05:25:01.312Z,-8.53
2018-01-07T05:26:11.020Z,-8.65
2018-01-07T05:27:20.989Z,-8.7
2018-01-07T05:28:30.966Z,-8.73
2018-01-07T05:29:40.936Z,-8.74
2018-01-07T05:30:50.747Z,-8.71
2018-01-07T05:32:00.459Z,-8.73
2018-01-07T05:33:10.166Z,-8.82
2018-01-07T05:34:20.198Z,-8.64
2018-01-07T05:35:29.642Z,-8.67
2018-01-07T05:36:39.615Z,-8.73
2018-01-07T05:37:49.587Z,-8.67
2018-01-07T05:38:59.554Z,-8.46
2018-01-07T05:40:09.526Z,-8.35
2018-01-07T05:41:19.236Z,-8.2
2018-01-07T05:42:29.208Z,-8.21
2018-01-07T05:43:39.195Z,-8.13
2018-01-07T05:44:49.163Z,-8.18
2018-01-07T05:45:59.140Z,-8.07
2018-01-07T05:47:09.117Z,-8.07
2018-01-07T05:48:19.195Z,-8.11
2018-01-07T05:49:29.173Z,-8.07
2018-01-07T05:50:39.188Z,-8.05
2018-01-07T05:51:49.160Z,-8.02
2018-01-07T05:52:58.863Z,-7.98
2018-01-07T05:54:08.835Z,-7.98
2018-01-07T05:55:18.807Z,-7.99
2018-01-07T05:56:28.249Z,-7.95
2018-01-07T05:57:38.222Z,-7.94
2018-01-07T05:58:48.191Z,-7.84
2018-01-07T05:59:58.166Z,-7.71
2018-01-07T06:01:08.158Z,-7.7
2018-01-07T06:02:17.603Z,-7.75
2018-01-07T06:03:27.357Z,-7.74
2018-01-07T06:04:37.333Z,-7.88
2018-01-07T06:05:47.312Z,-7.89
2018-01-07T06:06:57.023Z,-7.91
2018-01-07T06:08:07.026Z,-7.89
2018-01-07T06:09:17.008Z,-7.91
2018-01-07T06:10:26.992Z,-7.81
2018-01-07T06:11:36.972Z,-7.84
2018-01-07T06:12:46.947Z,-7.73
2018-01-07T06:13:56.651Z,-7.77
2018-01-07T06:15:06.628Z,-7.62
2018-01-07T06:16:16.603Z,-7.62
2018-01-07T06:17:26.628Z,-7.6
2018-01-07T06:18:36.661Z,-7.62
2018-01-07T06:19:46.370Z,-7.63
2018-01-07T06:20:56.341Z,-7.62
2018-01-07T06:22:06.049Z,-7.57
2018-01-07T06:23:15.813Z,-7.6
2018-01-07T06:24:25.787Z,-7.66
2018-01-07T06:25:35.234Z,-7.55
2018-01-07T06:26:44.943Z,-7.56
2018-01-07T06:27:54.399Z,-7.59
2018-01-07T06:29:04.371Z,-7.62
2018-01-07T06:30:14.443Z,-7.53
2018-01-07T06:31:24.419Z,-7.53
2018-01-07T06:32:34.397Z,-7.62
2018-01-07T06:33:44.373Z,-7.75
2018-01-07T06:34:54.353Z,-7.81
2018-01-07T06:36:04.327Z,-7.91
2018-01-07T06:37:14.036Z,-8.07
2018-01-07T06:38:24.008Z,-8.07
2018-01-07T06:39:33.995Z,-8.08
2018-01-07T06:40:44.006Z,-8.17
2018-01-07T06:41:53.984Z,-8.2
2018-01-07T06:43:03.958Z,-8.2
2018-01-07T06:44:13.138Z,-8.23
2018-01-07T06:45:23.113Z,-8.28
2018-01-07T06:46:32.819Z,-8.28
2018-01-07T06:47:42.798Z,-8.26
2018-01-07T06:48:52.508Z,-8.23
2018-01-07T06:50:02.483Z,-8.32
2018-01-07T06:51:11.926Z,-8.28
2018-01-07T06:52:21.638Z,-8.24
2018-01-07T06:53:31.610Z,-8.2
2018-01-07T06:54:41.319Z,-8.23
2018-01-07T06:55:51.028Z,-8.26
2018-01-07T06:57:01.000Z,-8.2
2018-01-07T06:58:10.709Z,-8.21
2018-01-07T06:59:20.420Z,-8.13
2018-01-07T07:00:30.456Z,-8.24
2018-01-07T07:01:40.545Z,-8.24
2018-01-07T07:02:50.517Z,-8.11
2018-01-07T07:04:00.224Z,-8.11
2018-01-07T07:05:10.231Z,-8.03
2018-01-07T07:06:20.203Z,-8.05
2018-01-07T07:07:30.184Z,-7.99
2018-01-07T07:08:39.892Z,-7.98
2018-01-07T07:09:49.875Z,-8.07
2018-01-07T07:10:59.588Z,-8.1
2018-01-07T07:12:09.309Z,-8.07
2018-01-07T07:13:19.312Z,-8.13
2018-01-07T07:14:28.755Z,-8.13
2018-01-07T07:15:38.470Z,-8.07
2018-01-07T07:16:48.445Z,-7.96
2018-01-07T07:17:58.418Z,-7.99
2018-01-07T07:19:08.128Z,-8.05
2018-01-07T07:20:18.099Z,-7.98
2018-01-07T07:21:28.076Z,-7.81
2018-01-07T07:22:38.046Z,-7.66
2018-01-07T07:23:48.014Z,-7.7
2018-01-07T07:24:57.720Z,-7.77
2018-01-07T07:26:07.698Z,-7.73
2018-01-07T07:27:17.406Z,-7.74
2018-01-07T07:28:27.375Z,-7.85
2018-01-07T07:29:36.816Z,-7.94
2018-01-07T07:30:46.793Z,-7.91
2018-01-07T07:31:56.501Z,-7.94
2018-01-07T07:33:06.209Z,-7.92
2018-01-07T07:34:15.917Z,-7.88
2018-01-07T07:35:25.893Z,-7.91
2018-01-07T07:36:35.341Z,-7.89
2018-01-07T07:37:45.316Z,-7.91
2018-01-07T07:38:55.025Z,-7.89
2018-01-07T07:40:05.005Z,-7.94
2018-01-07T07:41:15.037Z,-7.85
2018-01-07T07:42:25.010Z,-7.89
2018-01-07T07:43:34.984Z,-7.83
2018-01-07T07:44:44.955Z,-7.74
2018-01-07T07:45:54.922Z,-7.73
2018-01-07T07:47:04.898Z,-7.74
2018-01-07T07:48:14.605Z,-7.71
2018-01-07T07:49:24.583Z,-7.73
2018-01-07T07:50:34.561Z,-7.63
2018-01-07T07:51:44.554Z,-7.52
2018-01-07T07:52:54.262Z,-7.56
2018-01-07T07:54:04.234Z,-7.52
2018-01-07T07:55:14.207Z,-7.39
2018-01-07T07:56:24.181Z,-7.32
2018-01-07T07:57:34.157Z,-7.35
2018-01-07T07:58:43.865Z,-7.28
2018-01-07T07:59:53.837Z,-7.34
2018-01-07T08:01:03.553Z,-7.3
2018-01-07T08:02:13.316Z,-7.24
2018-01-07T08:03:23.338Z,-7.17
2018-01-07T08:04:33.047Z,-7.07
2018-01-07T08:05:42.772Z,-7.09
2018-01-07T08:06:52.745Z,-6.92
2018-01-07T08:08:02.456Z,-6.79
2018-01-07T08:09:12.174Z,-6.73
2018-01-07T08:10:22.153Z,-6.73
2018-01-07T08:11:31.605Z,-6.68
2018-01-07T08:12:41.043Z,-6.58
2018-01-07T08:13:51.015Z,-6.63
2018-01-07T08:15:00.990Z,-6.54
2018-01-07T08:16:10.700Z,-6.44
2018-01-07T08:17:20.678Z,-6.34
2018-01-07T08:18:30.658Z,-6.36
2018-01-07T08:19:40.631Z,-6.3
2018-01-07T08:20:50.606Z,-6.31
2018-01-07T08:22:00.313Z,-6.31
2018-01-07T08:23:10.288Z,-6.26
2018-01-07T08:24:20.261Z,-6.12
2018-01-07T08:25:29.972Z,-6.1
2018-01-07T08:26:39.995Z,-6.1
2018-01-07T08:27:49.969Z,-6.1
2018-01-07T08:28:59.415Z,-5.97
2018-01-07T08:30:09.392Z,-5.94
2018-01-07T08:31:19.501Z,-5.88
2018-01-07T08:32:29.220Z,-5.84
2018-01-07T08:33:39.194Z,-5.84
2018-01-07T08:34:49.168Z,-5.74
2018-01-07T08:35:59.200Z,-5.82
2018-01-07T08:37:09.179Z,-5.74
2018-01-07T08:38:19.152Z,-5.68
2018-01-07T08:39:28.864Z,-5.63
2018-01-07T08:40:38.576Z,-5.63
2018-01-07T08:41:48.554Z,-5.56
2018-01-07T08:42:58.528Z,-5.56
2018-01-07T08:44:08.244Z,-5.55
2018-01-07T08:45:17.686Z,-5.46
2018-01-07T08:46:27.664Z,-5.5
2018-01-07T08:47:37.643Z,-5.59
2018-01-07T08:48:47.727Z,-5.45
2018-01-07T08:49:57.704Z,-5.53
2018-01-07T08:51:07.688Z,-5.6
2018-01-07T08:52:17.664Z,-5.48
2018-01-07T08:53:27.639Z,-5.52
2018-01-07T08:54:37.398Z,-5.56
2018-01-07T08:55:47.113Z,-5.55
2018-01-07T08:56:57.094Z,-5.52
2018-01-07T08:58:06.846Z,-5.52
2018-01-07T08:59:16.840Z,-5.53
2018-01-07T09:00:26.596Z,-5.37
2018-01-07T09:01:36.569Z,-5.43
2018-01-07T09:02:46.546Z,-5.45
2018-01-07T09:03:56.525Z,-5.34
2018-01-07T09:05:06.238Z,-5.28
2018-01-07T09:06:16.221Z,-5.2
2018-01-07T09:07:25.931Z,-5.1
2018-01-07T09:08:35.645Z,-5.09
2018-01-07T09:09:45.621Z,-4.95
2018-01-07T09:10:55.602Z,-5
2018-01-07T09:12:05.343Z,-5
2018-01-07T09:13:15.319Z,-5.01
2018-01-07T09:14:25.303Z,-4.97
2018-01-07T09:15:35.019Z,-4.92
2018-01-07T09:16:45.045Z,-4.92
2018-01-07T09:17:55.021Z,-4.92
2018-01-07T09:19:04.732Z,-5.05
2018-01-07T09:20:14.707Z,-5.05
2018-01-07T09:21:24.686Z,-5.13
2018-01-07T09:22:34.661Z,-5.06
2018-01-07T09:23:44.635Z,-5.1
2018-01-07T09:24:54.348Z,-5.19
2018-01-07T09:26:04.066Z,-5.2
2018-01-07T09:27:13.512Z,-5.23
2018-01-07T09:28:23.222Z,-5.28
2018-01-07T09:29:33.032Z,-5.38
2018-01-07T09:30:43.010Z,-5.32
2018-01-07T09:31:52.727Z,-5.35
2018-01-07T09:33:02.711Z,-5.39
2018-01-07T09:34:12.686Z,-5.39
2018-01-07T09:35:22.659Z,-5.35
2018-01-07T09:36:31.838Z,-5.27
2018-01-07T09:37:41.826Z,-5.28
2018-01-07T09:38:51.858Z,-5.32
2018-01-07T09:40:01.839Z,-5.25
2018-01-07T09:41:11.334Z,-5.32
2018-01-07T09:42:21.314Z,-5.21
2018-01-07T09:43:31.025Z,-5.2
2018-01-07T09:44:40.741Z,-5.13
2018-01-07T09:45:50.715Z,-5.17
2018-01-07T09:47:00.700Z,-5.25
2018-01-07T09:48:10.718Z,-5.16
2018-01-07T09:49:20.163Z,-5.06
2018-01-07T09:50:30.144Z,-5.05
2018-01-07T09:51:39.860Z,-5.1
2018-01-07T09:52:49.890Z,-5.19
2018-01-07T09:53:59.866Z,-5.1
2018-01-07T09:55:09.848Z,-5.1
2018-01-07T09:56:19.826Z,-5.12
2018-01-07T09:57:29.812Z,-5
2018-01-07T09:58:39.786Z,-5.12
2018-01-07T09:59:49.781Z,-4.98
2018-01-07T10:00:59.761Z,-4.98
2018-01-07T10:02:09.476Z,-4.92
2018-01-07T10:03:19.459Z,-4.91
2018-01-07T10:04:28.909Z,-4.84
2018-01-07T10:05:38.892Z,-4.83
2018-01-07T10:06:48.870Z,-4.73
2018-01-07T10:07:58.843Z,-4.67
2018-01-07T10:09:08.824Z,-4.63
2018-01-07T10:10:18.536Z,-4.62
2018-01-07T10:11:28.245Z,-4.59
2018-01-07T10:12:37.959Z,-4.58
2018-01-07T10:13:47.671Z,-4.59
2018-01-07T10:14:57.646Z,-4.62
2018-01-07T10:16:07.641Z,-4.51
2018-01-07T10:17:17.624Z,-4.35
2018-01-07T10:18:27.612Z,-4.41
2018-01-07T10:19:37.587Z,-4.4
2018-01-07T10:20:47.311Z,-4.37
2018-01-07T10:21:57.021Z,-4.31
2018-01-07T10:23:06.735Z,-4.23
2018-01-07T10:24:16.451Z,-4.23
2018-01-07T10:25:26.429Z,-4.19
2018-01-07T10:26:36.412Z,-4.17
2018-01-07T10:27:46.394Z,-4.17
2018-01-07T10:28:56.369Z,-4.16
2018-01-07T10:30:06.125Z,-4.17
2018-01-07T10:31:16.117Z,-4.13
2018-01-07T10:32:25.857Z,-4.02
2018-01-07T10:33:35.835Z,-3.99
2018-01-07T10:34:45.810Z,-4.01
2018-01-07T10:35:55.790Z,-4.04
2018-01-07T10:37:05.770Z,-3.94
2018-01-07T10:38:15.228Z,-4.04
2018-01-07T10:39:25.219Z,-3.94
2018-01-07T10:40:35.199Z,-3.88
2018-01-07T10:41:45.178Z,-3.95
2018-01-07T10:42:55.213Z,-3.9
2018-01-07T10:44:04.932Z,-3.8
2018-01-07T10:45:14.646Z,-3.75
2018-01-07T10:46:24.108Z,-3.75
2018-01-07T10:47:34.147Z,-3.69
2018-01-07T10:48:43.859Z,-3.77
2018-01-07T10:49:53.636Z,-3.75
2018-01-07T10:51:03.612Z,-3.71
2018-01-07T10:52:13.592Z,-3.69
2018-01-07T10:53:23.571Z,-3.66
2018-01-07T10:54:33.550Z,-3.71
2018-01-07T10:55:43.285Z,-3.69
2018-01-07T10:56:53.322Z,-3.78
2018-01-07T10:58:03.303Z,-3.81
2018-01-07T10:59:13.283Z,-3.77
2018-01-07T11:00:23.259Z,-3.81
2018-01-07T11:01:32.968Z,-3.83
2018-01-07T11:02:42.682Z,-3.96
2018-01-07T11:03:52.661Z,-3.88
2018-01-07T11:05:02.638Z,-3.88
2018-01-07T11:06:12.085Z,-3.91
2018-01-07T11:07:22.066Z,-3.88
2018-01-07T11:08:32.094Z,-3.91
2018-01-07T11:09:42.071Z,-3.85
2018-01-07T11:10:51.808Z,-3.8
2018-01-07T11:12:01.797Z,-3.75
2018-01-07T11:13:11.512Z,-3.74
2018-01-07T11:14:21.511Z,-3.69
2018-01-07T11:15:31.226Z,-3.62
2018-01-07T11:16:40.943Z,-3.58
2018-01-07T11:17:50.937Z,-3.55
2018-01-07T11:19:00.673Z,-3.61
2018-01-07T11:20:10.169Z,-3.5
2018-01-07T11:21:20.161Z,-3.51
2018-01-07T11:22:30.139Z,-3.46
2018-01-07T11:23:39.589Z,-3.46
2018-01-07T11:24:49.568Z,-3.43
2018-01-07T11:25:59.544Z,-3.4
2018-01-07T11:27:09.531Z,-3.38
2018-01-07T11:28:19.521Z,-3.22
2018-01-07T11:29:28.970Z,-3.23
2018-01-07T11:30:38.683Z,-3.22
2018-01-07T11:31:48.662Z,-3.26
2018-01-07T11:32:58.382Z,-3.29
2018-01-07T11:34:08.096Z,-3.2
2018-01-07T11:35:18.083Z,-3.26
2018-01-07T11:36:27.795Z,-3.23
2018-01-07T11:37:37.507Z,-3.23
2018-01-07T11:38:46.959Z,-3.29
2018-01-07T11:39:56.940Z,-3.41
2018-01-07T11:41:06.656Z,-3.32
2018-01-07T11:42:16.103Z,-3.37
2018-01-07T11:43:25.565Z,-3.36
2018-01-07T11:44:35.284Z,-3.38
2018-01-07T11:45:45.004Z,-3.2
2018-01-07T11:46:55.004Z,-3.27
2018-01-07T11:48:04.985Z,-3.26
2018-01-07T11:49:14.704Z,-3.3
2018-01-07T11:50:24.679Z,-3.25
2018-01-07T11:51:34.399Z,-3.27
2018-01-07T11:52:44.438Z,-3.26
2018-01-07T11:53:54.157Z,-3.32
2018-01-07T11:55:04.142Z,-3.4
2018-01-07T11:56:13.863Z,-3.23
2018-01-07T11:57:23.840Z,-3.29
2018-01-07T11:58:33.560Z,-3.3
2018-01-07T11:59:43.548Z,-3.38
2018-01-07T12:00:52.994Z,-3.4
2018-01-07T12:02:03.030Z,-3.41
2018-01-07T12:03:13.013Z,-3.43
2018-01-07T12:04:22.998Z,-3.43
2018-01-07T12:05:32.465Z,-3.3
2018-01-07T12:06:42.452Z,-3.37
2018-01-07T12:07:52.438Z,-3.38
2018-01-07T12:09:02.436Z,-3.32
2018-01-07T12:10:11.883Z,-3.27
2018-01-07T12:11:21.872Z,-3.23
2018-01-07T12:12:31.949Z,-3.2
2018-01-07T12:13:41.664Z,-3.19
2018-01-07T12:14:50.847Z,-3.14
2018-01-07T12:16:00.888Z,-3.08
2018-01-07T12:17:10.604Z,-3.09
2018-01-07T12:18:20.586Z,-3.11
2018-01-07T12:19:30.297Z,-3.09
2018-01-07T12:20:40.650Z,-3.04
2018-01-07T12:21:50.632Z,-3.01
2018-01-07T12:23:00.342Z,-2.87
2018-01-07T12:24:10.330Z,-2.87
2018-01-07T12:25:20.313Z,-2.91
2018-01-07T12:26:30.293Z,-2.87
2018-01-07T12:27:40.057Z,-2.89
2018-01-07T12:28:50.043Z,-2.76
2018-01-07T12:29:59.758Z,-2.86
2018-01-07T12:31:09.523Z,-2.78
2018-01-07T12:32:19.251Z,-2.89
2018-01-07T12:33:28.700Z,-2.73
2018-01-07T12:34:38.422Z,-2.7
2018-01-07T12:35:48.144Z,-2.7
2018-01-07T12:36:57.858Z,-2.65
2018-01-07T12:38:07.577Z,-2.75
2018-01-07T12:39:17.554Z,-2.69
2018-01-07T12:40:27.270Z,-2.63
2018-01-07T12:41:36.842Z,-2.66
2018-01-07T12:42:46.835Z,-2.65
2018-01-07T12:43:56.866Z,-2.69
2018-01-07T12:45:06.851Z,-2.68
2018-01-07T12:46:16.833Z,-2.69
2018-01-07T12:47:26.824Z,-2.7
2018-01-07T12:48:36.546Z,-2.8
2018-01-07T12:49:46.529Z,-2.73
2018-01-07T12:50:56.267Z,-2.7
2018-01-07T12:52:06.306Z,-2.84
2018-01-07T12:53:16.384Z,-2.78
2018-01-07T12:54:26.362Z,-2.9
2018-01-07T12:55:36.077Z,-2.87
2018-01-07T12:56:46.058Z,-2.91
2018-01-07T12:57:56.033Z,-2.94
2018-01-07T12:59:06.018Z,-2.98
2018-01-07T13:00:15.998Z,-2.87
2018-01-07T13:01:25.987Z,-2.89
2018-01-07T13:02:35.172Z,-2.89
2018-01-07T13:03:45.159Z,-2.83
2018-01-07T13:04:54.872Z,-2.9
2018-01-07T13:06:04.625Z,-2.87
2018-01-07T13:07:14.662Z,-2.7
2018-01-07T13:08:24.645Z,-2.7
2018-01-07T13:09:34.363Z,-2.69
2018-01-07T13:10:44.339Z,-2.63
2018-01-07T13:11:54.054Z,-2.69
2018-01-07T13:13:03.768Z,-2.55
2018-01-07T13:14:13.755Z,-2.51
2018-01-07T13:15:23.734Z,-2.47
2018-01-07T13:16:33.723Z,-2.51
2018-01-07T13:17:43.705Z,-2.5
2018-01-07T13:18:53.703Z,-2.37
2018-01-07T13:20:03.685Z,-2.39
2018-01-07T13:21:13.133Z,-2.4
2018-01-07T13:22:22.846Z,-2.39
2018-01-07T13:23:32.822Z,-2.4
2018-01-07T13:24:42.276Z,-2.42
2018-01-07T13:25:52.316Z,-2.37
2018-01-07T13:27:02.301Z,-2.32
2018-01-07T13:28:12.062Z,-2.33
2018-01-07T13:29:22.042Z,-2.28
2018-01-07T13:30:32.031Z,-2.36
2018-01-07T13:31:42.014Z,-2.34
2018-01-07T13:32:51.730Z,-2.29
2018-01-07T13:34:01.446Z,-2.36
2018-01-07T13:35:11.185Z,-2.32
2018-01-07T13:36:21.220Z,-2.36
2018-01-07T13:37:30.979Z,-2.18
2018-01-07T13:38:40.963Z,-2.28
2018-01-07T13:39:50.942Z,-2.32
2018-01-07T13:41:00.923Z,-2.17
2018-01-07T13:42:10.905Z,-2.22
2018-01-07T13:43:20.353Z,-2.13
2018-01-07T13:44:30.330Z,-1.97
2018-01-07T13:45:40.053Z,-1.97
2018-01-07T13:46:50.036Z,-1.92
2018-01-07T13:48:00.018Z,-1.82
2018-01-07T13:49:10.011Z,-1.84
2018-01-07T13:50:19.994Z,-1.76
2018-01-07T13:51:29.708Z,-1.78
2018-01-07T13:52:39.424Z,-1.71
2018-01-07T13:53:49.406Z,-1.64
2018-01-07T13:54:59.384Z,-1.61
2018-01-07T13:56:09.375Z,-1.64
2018-01-07T13:57:19.357Z,-1.6
2018-01-07T13:58:29.077Z,-1.63
2018-01-07T13:59:38.523Z,-1.72
2018-01-07T14:00:48.507Z,-1.66
2018-01-07T14:01:58.222Z,-1.63
2018-01-07T14:03:08.209Z,-1.64
2018-01-07T14:04:18.187Z,-1.72
2018-01-07T14:05:28.182Z,-1.64
2018-01-07T14:06:37.896Z,-1.72
2018-01-07T14:07:47.608Z,-1.64
2018-01-07T14:08:57.585Z,-1.68
2018-01-07T14:10:07.569Z,-1.63
2018-01-07T14:11:17.019Z,-1.66
2018-01-07T14:12:27.050Z,-1.68
2018-01-07T14:13:37.026Z,-1.66
2018-01-07T14:14:47.074Z,-1.6
2018-01-07T14:15:56.522Z,-1.64
2018-01-07T14:17:06.240Z,-1.48
2018-01-07T14:18:16.222Z,-1.51
2018-01-07T14:19:25.671Z,-1.6
2018-01-07T14:20:35.128Z,-1.53
2018-01-07T14:21:45.151Z,-1.46
2018-01-07T14:22:55.128Z,-1.5
2018-01-07T14:24:05.107Z,-1.51
2018-01-07T14:25:14.829Z,-1.57
2018-01-07T14:26:24.806Z,-1.68
2018-01-07T14:27:34.607Z,-1.61
2018-01-07T14:28:44.589Z,-1.64
2018-01-07T14:29:54.578Z,-1.66
2018-01-07T14:31:04.306Z,-1.72
2018-01-07T14:32:14.285Z,-1.66
2018-01-07T14:33:24.278Z,-1.69
2018-01-07T14:34:34.000Z,-1.69
2018-01-07T14:35:43.715Z,-1.75
2018-01-07T14:36:53.697Z,-1.76
2018-01-07T14:38:03.417Z,-1.84
2018-01-07T14:39:13.401Z,-1.82
2018-01-07T14:40:23.385Z,-1.81
2018-01-07T14:41:33.369Z,-1.81
2018-01-07T14:42:42.819Z,-1.82
2018-01-07T14:43:52.801Z,-1.75
2018-01-07T14:45:02.784Z,-1.82
2018-01-07T14:46:12.236Z,-1.79
2018-01-07T14:47:21.952Z,-1.76
2018-01-07T14:48:31.667Z,-1.74
2018-01-07T14:49:41.383Z,-1.74
2018-01-07T14:50:51.103Z,-1.78
2018-01-07T14:52:01.078Z,-1.76
2018-01-07T14:53:11.060Z,-1.72
2018-01-07T14:54:21.052Z,-1.76
2018-01-07T14:55:30.763Z,-1.69
2018-01-07T14:56:40.744Z,-1.71
2018-01-07T14:57:50.462Z,-1.68
2018-01-07T14:59:00.440Z,-1.74
2018-01-07T15:00:10.420Z,-1.71
2018-01-07T15:01:20.502Z,-1.6
2018-01-07T15:02:30.486Z,-1.68
2018-01-07T15:03:40.462Z,-1.66
2018-01-07T15:04:50.441Z,-1.68
2018-01-07T15:06:00.157Z,-1.6
2018-01-07T15:07:09.910Z,-1.61